Flingsville, Kentucky
Current Conditions -  °F | °C
As of 1:52 PM on Friday 21 Nov 2014 (Local Time) from KCVG Reporting Station
Clear Clear  
Wind Chill: 26°   Ceiling: Unl
Heat Index: 31°   Visibility: 10mi
Dew Point: 10°   Wind: 5mph
Humidity: 42%   Direction: 160°SSE
Pressure: 30.47"   Gusts: NA
Location:  38.7783°N, 84.6037°W
Report Text: KCVG 211852Z 16004KT 10SM CLR M01/M12 A3047 RMK AO2 SLP326 T10061122
Loading
Personal Weather Stations






























Interactive Weather Map New forecast layout! Learn more

10-Day Weather Forecast

Advertisements
Track Severe Weather on mobile